Terminal Aerodrome Forecast
Issued by NWS

Home | Current Version | Previous Version | Text Only | Print | Product List | Glossary On
Versions: 1 2 3 4 5 6 7 8 9 10 11 12 13 14 15
000
FTUS45 KABQ 300747 AAA
TAFLVS
TAF AMD
KLVS 300747Z 3008/3106 21008KT P6SM SCT025
      TEMPO 3008/3012 5SM BR OVC012
     FM301200 21008KT 5SM BR OVC012
      TEMPO 3012/3015 SCT012 OVC025
     FM301600 20012G22KT P6SM SCT060
     FM302000 20020G30KT P6SM SCT100
     FM310200 14014KT P6SM SCT080=

USA.gov is the U.S. government's official web portal to all federal, state and local government web resources and services.